Latest Weather Observations for Cummins Airport

IDS60801

Issued at 7:02 pm CST Sunday 26 April 2015 (issued every 30 minutes, with the page automatically refreshed every 10 minutes)

About weather observations | Map of weather stations | Latest weather observations for SA | Other Formats
Station Details ID: 018217 Name: CUMMINS AERO Lat: -34.25 Lon: 135.71 Height: 60.11 m
Data from the previous 72 hours. | See also: Recent months at Cummins Airport
Date/Time
CST
Temp
°C
App
Temp
°C
Dew
Point
Rel
Hum
%
Delta-T
°C
Wind Press
QNH
hPa
Press
MSL
hPa
Rain
since 9 am
mm
Dir
 
Spd
km/h
Gust
km/h
Spd
kts
Gust
kts
26/07:00pm 13.5 11.8 9.7 78 1.9 SSW 9 13 5 7 1027.6 1027.6 0.0
26/06:30pm 13.6 12.2 9.5 76 2.1 SSW 7 9 4 5 1027.3 1027.3 0.0
26/06:00pm 13.8 12.0 9.3 74 2.3 S 9 11 5 6 1027.1 1027.1 0.0
26/05:30pm 14.2 11.5 9.0 71 2.6 S 13 19 7 10 1026.7 1026.7 0.0
26/05:00pm 14.4 10.4 9.0 70 2.8 S 20 24 11 13 1026.5 1026.5 0.0
26/04:30pm 15.1 11.2 8.8 66 3.2 SSW 19 26 10 14 1026.1 1026.0 0.0
26/04:00pm 15.2 10.7 8.7 65 3.3 SSW 22 28 12 15 1026.0 1025.9 0.0
26/03:30pm 16.0 12.0 9.2 64 3.5 S 20 28 11 15 1025.9 1025.8 0.0
26/03:00pm 16.0 11.5 8.7 62 3.7 S 22 30 12 16 1025.8 1025.7 0.0
26/02:30pm 16.3 11.9 9.0 62 3.7 S 22 28 12 15 1025.7 1025.6 0.0
26/02:00pm 16.8 12.5 8.0 56 4.5 SSW 20 28 11 15 1025.5 1025.4 0.0
26/01:30pm 16.9 11.9 8.1 56 4.5 SSW 24 30 13 16 1025.5 1025.4 0.0
26/01:00pm 16.5 11.8 7.7 56 4.4 SSW 22 32 12 17 1025.7 1025.6 0.0
26/12:30pm 16.4 12.4 8.1 58 4.2 S 19 26 10 14 1026.0 1025.9 0.0
26/12:00pm 16.3 11.8 8.5 60 4.0 SSW 22 28 12 15 1026.2 1026.2 0.0
26/11:30am 16.5 12.5 10.4 67 3.2 SSW 22 30 12 16 1026.5 1026.5 0.0
26/11:00am 15.9 11.0 8.4 61 3.8 SSW 24 35 13 19 1026.5 1026.5 0.0
26/10:30am 16.2 11.4 8.7 61 3.8 SSW 24 32 13 17 1026.4 1026.4 0.0
26/10:00am 15.4 11.0 9.1 66 3.2 S 22 30 12 16 1026.5 1026.5 0.0
26/09:30am 14.4 11.0 10.4 77 2.1 SSW 19 26 10 14 1026.5 1026.5 0.0
26/09:00am 13.0 11.3 12.5 97 0.3 SSW 13 17 7 9 1026.4 1026.4 2.0
26/08:30am 11.0 11.3 11.0 100 0.0 CALM 0 0 0 0 1026.3 1026.3 2.0
26/08:00am 9.5 9.4 9.5 100 0.0 CALM 0 0 0 0 1026.1 1026.0 2.0
26/07:30am 8.3 7.9 8.3 100 0.0 CALM 0 0 0 0 1025.7 1025.6 2.0
26/07:00am 7.3 6.7 7.2 99 0.0 CALM 0 0 0 0 1025.4 1025.3 2.0
26/06:30am 7.1 5.6 7.0 99 0.0 N 4 6 2 3 1025.1 1025.0 2.0
26/06:00am 7.3 5.5 7.2 99 0.0 NNE 6 7 3 4 1024.9 1024.8 2.0
26/05:30am 6.4 5.1 6.1 98 0.1 NNE 2 9 1 5 1024.7 1024.6 2.0
26/05:00am 7.4 5.4 7.1 98 0.1 NE 7 9 4 5 1024.3 1024.2 2.0
26/04:30am 7.8 6.1 7.5 98 0.1 WSW 6 6 3 3 1024.2 1024.1 2.0
26/04:00am 8.0 5.7 7.6 97 0.2 W 9 11 5 6 1024.0 1023.9 2.0
26/03:30am 8.9 8.6 8.5 97 0.2 CALM 0 0 0 0 1023.7 1023.6 2.0
26/03:00am 9.4 8.8 8.8 96 0.3 WSW 2 7 1 4 1023.6 1023.5 2.0
26/02:30am 9.9 8.6 9.1 95 0.4 S 6 9 3 5 1023.6 1023.5 2.0
26/02:00am 9.1 7.0 8.2 94 0.4 SSW 9 11 5 6 1023.6 1023.5 2.0
26/01:30am 9.3 7.5 7.9 91 0.7 SW 7 7 4 4 1023.6 1023.5 2.0
26/01:00am 10.1 8.1 8.5 90 0.8 SW 9 11 5 6 1023.7 1023.6 2.0
26/12:30am 10.5 9.0 8.6 88 0.9 SSW 6 7 3 4 1023.8 1023.7 2.0
26/12:00am 11.2 9.7 9.1 87 1.0 SSW 7 9 4 5 1023.7 1023.6 2.0
 
Date/Time
CST
Temp
°C
App
Temp
°C
Dew
Point
Rel
Hum
%
Delta-T
°C
Wind Press
QNH
hPa
Press
MSL
hPa
Rain
since 9 am
mm
Dir
 
Spd
km/h
Gust
km/h
Spd
kts
Gust
kts
25/11:30pm 11.3 9.0 8.9 85 1.2 SSW 11 15 6 8 1023.9 1023.8 2.0
25/11:00pm 12.3 10.5 9.3 82 1.5 S 9 11 5 6 1024.0 1023.9 2.0
25/10:30pm 12.3 10.9 9.5 83 1.4 W 7 9 4 5 1024.0 1023.9 2.0
25/10:00pm 12.2 10.8 9.6 84 1.3 WSW 7 11 4 6 1023.7 1023.6 2.0
25/09:30pm 12.1 10.7 9.5 84 1.3 SW 7 11 4 6 1023.5 1023.4 2.0
25/09:00pm 12.5 9.8 9.0 79 1.8 SSW 13 17 7 9 1023.1 1023.0 2.0
25/08:30pm 13.1 10.2 9.7 80 1.7 SSW 15 19 8 10 1022.8 1022.7 2.0
25/08:00pm 13.0 10.3 10.2 83 1.4 SSW 15 22 8 12 1022.4 1022.3 2.0
25/07:30pm 13.4 10.8 10.6 83 1.5 SSW 15 20 8 11 1022.0 1021.9 2.0
25/07:00pm 13.6 11.1 10.9 84 1.4 SSW 15 19 8 10 1021.9 1021.8 2.0
25/06:30pm 13.4 11.0 11.3 87 1.1 SSW 15 20 8 11 1021.6 1021.5 2.0
25/06:00pm 13.6 10.1 10.8 83 1.5 SSW 20 28 11 15 1021.1 1021.0 2.0
25/05:30pm 13.9 8.8 10.7 81 1.7 SSW 28 35 15 19 1020.7 1020.6 2.0
25/05:00pm 14.9 10.8 11.5 80 1.8 SSW 24 33 13 18 1020.4 1020.3 2.0
25/04:30pm 14.5 8.9 11.5 82 1.6 SSW 32 39 17 21 1020.0 1019.9 2.0
25/04:00pm 15.7 10.4 12.5 81 1.8 SSW 32 41 17 22 1019.6 1019.5 2.0
25/03:30pm 15.3 9.5 12.6 84 1.5 SSW 35 46 19 25 1019.2 1019.1 2.0
25/03:00pm 13.9 8.0 12.5 91 0.8 SSW 35 46 19 25 1018.9 1018.8 2.0
25/02:30pm 15.1 10.7 13.0 87 1.2 SSW 28 39 15 21 1018.7 1018.6 2.0
25/02:00pm 15.1 11.0 13.8 92 0.7 S 28 39 15 21 1018.3 1018.2 2.0
25/01:30pm 15.6 10.5 13.8 89 1.0 SSW 33 43 18 23 1018.1 1018.0 1.4
25/01:00pm 15.6 12.2 14.8 95 0.5 S 26 35 14 19 1018.3 1018.2 1.4
25/12:30pm 16.0 11.0 13.3 84 1.5 SSW 32 41 17 22 1018.2 1018.1 0.2
25/12:00pm 14.8 10.5 13.2 90 0.9 S 28 37 15 20 1018.3 1018.2 0.2
25/11:30am 14.4 9.6 13.0 91 0.8 SSW 30 37 16 20 1018.2 1018.1 0.2
25/11:00am 14.6 10.0 13.5 93 0.6 SSW 30 41 16 22 1017.8 1017.7 0.2
25/10:30am 14.4 10.2 13.4 94 0.6 SSW 28 37 15 20 1017.5 1017.4 0.2
25/10:00am 14.3 11.9 13.8 97 0.3 SSW 19 24 10 13 1017.4 1017.3 0.2
25/09:30am 13.2 10.8 12.7 97 0.3 S 17 24 9 13 1017.1 1017.0 0.2
25/09:00am 12.6 10.8 12.1 97 0.3 SW 13 20 7 11 1016.7 1016.6 21.0
25/08:30am 12.4 10.1 11.6 95 0.4 SSW 15 20 8 11 1016.2 1016.1 19.8
25/08:00am 12.3 10.5 10.9 91 0.7 SW 11 13 6 7 1015.7 1015.6 19.2
25/07:30am 11.9 9.6 10.5 91 0.7 SSW 13 17 7 9 1015.0 1014.9 19.2
25/07:00am 11.9 8.6 10.8 93 0.6 SSW 19 30 10 16 1014.5 1014.4 19.2
25/06:30am 10.8 8.8 10.2 96 0.3 SSW 11 13 6 7 1014.0 1013.9 19.2
25/06:00am 11.5 9.6 10.6 94 0.5 SW 11 13 6 7 1013.3 1013.2 19.2
25/05:30am 12.2 9.7 11.1 93 0.6 SW 15 20 8 11 1012.7 1012.6 19.2
25/05:00am 12.3 8.3 10.5 89 0.9 SW 22 28 12 15 1012.2 1012.1 19.2
25/04:30am 12.5 7.9 11.1 91 0.7 SSW 26 33 14 18 1011.5 1011.3 19.2
25/04:00am 12.3 7.0 11.2 93 0.6 SSW 30 41 16 22 1011.1 1010.9 19.2
25/03:30am 12.5 8.6 10.7 89 0.9 SSW 22 30 12 16 1011.0 1010.8 18.6
25/03:00am 12.8 8.6 11.2 90 0.8 SSW 24 32 13 17 1010.6 1010.5 18.6
25/02:30am 12.8 9.7 11.5 92 0.7 SSW 19 26 10 14 1010.2 1010.1 18.6
25/02:00am 12.8 10.0 11.5 92 0.7 SSW 17 24 9 13 1009.9 1009.8 18.6
25/01:30am 12.9 7.1 11.6 92 0.7 SW 33 46 18 25 1009.4 1009.3 18.6
25/01:10am 12.9 5.7 11.8 93 0.6 SW 41 59 22 32 1009.0 1008.9 18.6
25/01:00am 12.8 5.0 11.7 93 0.6 SW 44 61 24 33 1008.8 1008.7 18.6
25/12:53am 12.6 4.8 11.3 92 0.7 SW 43 61 23 33 1008.7 1008.6 18.6
25/12:30am 12.9 5.2 12.0 94 0.5 SW 44 57 24 31 1008.3 1008.2 18.2
25/12:00am 13.3 4.7 11.5 89 1.0 SW 48 67 26 36 1007.7 1007.6 17.4
 
Date/Time
CST
Temp
°C
App
Temp
°C
Dew
Point
Rel
Hum
%
Delta-T
°C
Wind Press
QNH
hPa
Press
MSL
hPa
Rain
since 9 am
mm
Dir
 
Spd
km/h
Gust
km/h
Spd
kts
Gust
kts
24/11:45pm 13.1 5.4 12.0 93 0.6 WSW 44 65 24 35 1007.3 1007.2 17.0
24/11:30pm 12.9 6.1 12.0 94 0.5 WSW 39 56 21 30 1007.1 1007.0 16.4
24/11:20pm 12.8 4.2 11.7 93 0.6 WSW 48 67 26 36 1007.2 1007.1 15.8
24/11:00pm 13.0 4.0 11.6 91 0.7 WSW 50 65 27 35 1007.0 1006.9 15.2
24/10:30pm 12.5 2.1 11.4 93 0.6 WSW 57 80 31 43 1007.2 1007.1 14.4
24/10:21pm 12.7 3.6 11.3 91 0.7 WSW 50 69 27 37 1007.0 1006.9 14.2
24/10:00pm 12.6 4.9 11.5 93 0.6 WSW 43 59 23 32 1007.2 1007.1 13.4
24/09:49pm 12.7 5.7 11.4 92 0.7 WSW 39 57 21 31 1007.4 1007.3 12.8
24/09:30pm 12.7 4.9 11.3 91 0.7 WSW 43 56 23 30 1007.3 1007.2 11.6
24/09:11pm 12.5 5.2 11.6 94 0.5 WSW 41 61 22 33 1007.1 1007.0 11.6
24/09:00pm 12.4 3.0 11.5 94 0.5 WSW 52 70 28 38 1007.2 1007.1 11.2
24/08:30pm 11.5 -0.3 10.6 94 0.5 W 63 87 34 47 1006.7 1006.6 9.2
24/08:00pm 12.0 1.9 10.4 90 0.8 W 54 82 29 44 1007.0 1006.9 7.2
24/07:48pm 11.6 1.2 9.2 85 1.2 W 54 85 29 46 1006.8 1006.7 7.0
24/07:30pm 12.4 3.8 10.3 87 1.1 W 46 67 25 36 1007.0 1006.9 7.0
24/07:00pm 11.9 2.5 10.3 90 0.8 W 50 69 27 37 1007.2 1007.1 6.4
24/06:50pm 11.9 3.9 10.3 90 0.8 W 43 63 23 34 1007.3 1007.2 5.0
24/06:30pm 11.6 3.9 10.2 91 0.7 W 41 52 22 28 1007.2 1007.1 2.6
24/06:00pm 10.8 3.1 8.7 87 1.0 WNW 39 61 21 33 1007.8 1007.7 1.6
24/05:35pm 12.1 4.3 8.2 77 1.9 WNW 39 63 21 34 1008.0 1007.9 0.8
24/05:30pm 11.8 4.8 8.5 80 1.6 WNW 35 50 19 27 1008.0 1007.9 0.8
24/05:00pm 12.8 3.8 7.3 69 2.7 WNW 44 63 24 34 1008.0 1007.9 0.6
24/04:34pm 13.8 3.4 6.2 60 3.6 W 50 69 27 37 1008.1 1008.0 0.6
24/04:30pm 13.8 2.9 5.7 58 3.8 W 52 69 28 37 1008.1 1008.0 0.6
24/04:26pm 13.7 4.2 6.8 63 3.3 W 46 67 25 36 1008.2 1008.1 0.6
24/04:00pm 12.7 5.7 8.6 76 2.0 WNW 35 59 19 32 1008.7 1008.6 0.6
24/03:59pm 12.7 5.7 8.4 75 2.1 WNW 35 59 19 32 1008.7 1008.6 0.6
24/03:30pm 12.5 4.9 9.0 79 1.8 WNW 39 54 21 29 1009.1 1009.0 0.6
24/03:04pm 12.3 6.9 9.5 83 1.4 WNW 28 50 15 27 1009.3 1009.2 0.6
24/03:00pm 13.0 8.1 10.0 82 1.5 WNW 26 41 14 22 1009.3 1009.2 0.4
24/02:55pm 13.0 6.7 9.8 81 1.6 WNW 33 50 18 27 1009.4 1009.3 0.4
24/02:30pm 14.5 6.5 7.3 62 3.6 W 39 50 21 27 1009.5 1009.4 0.4
24/02:00pm 13.8 4.9 6.7 62 3.4 W 43 54 23 29 1009.6 1009.5 0.4
24/01:30pm 13.7 6.9 7.9 68 2.9 W 33 44 18 24 1010.0 1009.9 0.4
24/01:00pm 14.9 6.4 7.0 59 3.9 W 41 54 22 29 1010.1 1010.0 0.4
24/12:30pm 13.5 6.8 8.1 70 2.7 W 33 48 18 26 1010.7 1010.6 0.4
24/12:00pm 12.9 6.4 9.0 77 2.0 W 33 54 18 29 1011.1 1010.9 0.4
24/11:31am 11.9 5.3 7.8 76 2.0 WSW 32 50 17 27 1011.4 1011.2 0.0
24/11:30am 11.9 5.1 7.6 75 2.1 WSW 33 50 18 27 1011.4 1011.2 0.0
24/11:00am 13.2 5.9 7.2 67 2.9 WSW 35 46 19 25 1011.5 1011.3 0.0
24/10:31am 14.3 7.2 6.4 59 3.8 WSW 33 52 18 28 1011.1 1010.9 0.0
24/10:30am 14.4 7.4 6.7 60 3.7 WSW 33 43 18 23 1011.2 1011.0 0.0
24/10:00am 13.9 5.5 7.2 64 3.3 WSW 41 56 22 30 1011.1 1010.9 0.0
24/09:30am 13.2 6.6 7.6 69 2.8 WSW 32 41 17 22 1011.0 1010.8 0.0
24/09:08am 13.1 7.2 7.5 69 2.7 WSW 28 54 15 29 1011.0 1010.8 0.0
24/09:00am 12.8 7.8 7.9 72 2.4 WSW 24 32 13 17 1011.0 1010.8 3.0
24/08:30am 12.3 7.3 8.2 76 2.0 WSW 24 35 13 19 1010.7 1010.6 3.0
24/08:00am 11.6 7.4 9.7 88 1.0 WSW 22 30 12 16 1010.5 1010.4 3.0
24/07:46am 11.5 6.1 9.6 88 1.0 WSW 28 46 15 25 1010.4 1010.3 3.0
24/07:30am 11.6 7.5 10.2 91 0.7 WSW 22 33 12 18 1010.2 1010.1 3.0
24/07:00am 11.9 6.8 10.5 91 0.7 WSW 28 41 15 22 1010.0 1009.9 2.8
24/06:46am 12.0 6.3 11.1 94 0.5 WSW 32 59 17 32 1009.7 1009.6 2.8
24/06:30am 12.1 7.3 11.5 96 0.3 WSW 28 41 15 22 1009.7 1009.6 2.6
24/06:00am 13.0 6.8 12.5 97 0.3 WSW 37 54 20 29 1009.2 1009.1 2.4
24/05:52am 13.1 7.8 12.6 97 0.3 NW 32 54 17 29 1009.2 1009.1 2.0
24/05:50am 14.0 10.2 13.7 98 0.2 NNW 26 52 14 28 1009.1 1009.0 1.8
24/05:30am 13.6 11.0 13.3 98 0.2 NNW 19 26 10 14 1008.7 1008.6 0.6
24/05:00am 13.2 10.8 12.7 97 0.3 NNW 17 22 9 12 1009.1 1009.0 0.6
24/04:30am 13.1 10.7 12.5 96 0.3 NNW 17 20 9 11 1009.2 1009.1 0.6
24/04:00am 13.8 11.2 13.2 96 0.3 NNW 19 28 10 15 1009.2 1009.1 0.6
24/03:30am 13.6 11.0 13.1 97 0.3 NNW 19 24 10 13 1009.7 1009.6 0.4
24/03:00am 13.6 10.9 13.0 96 0.3 NNW 19 24 10 13 1010.0 1009.9 0.4
24/02:30am 13.8 11.1 13.0 95 0.4 NNW 19 24 10 13 1010.6 1010.5 0.4
24/02:00am 13.9 11.9 12.8 93 0.6 NNW 15 20 8 11 1011.3 1011.1 0.4
24/01:30am 14.2 11.3 12.4 89 1.0 NW 19 22 10 12 1011.9 1011.7 0.0
24/01:00am 14.0 12.3 12.4 90 0.9 NNW 13 19 7 10 1012.2 1012.1 0.0
24/12:30am 13.9 12.1 12.1 89 1.0 NNW 13 17 7 9 1012.6 1012.5 0.0
24/12:00am 13.5 11.9 11.7 89 1.0 NNW 11 13 6 7 1012.8 1012.7 0.0
 
Date/Time
CST
Temp
°C
App
Temp
°C
Dew
Point
Rel
Hum
%
Delta-T
°C
Wind Press
QNH
hPa
Press
MSL
hPa
Rain
since 9 am
mm
Dir
 
Spd
km/h
Gust
km/h
Spd
kts
Gust
kts
23/11:30pm 13.4 11.8 11.6 89 1.0 NNW 11 13 6 7 1013.2 1013.1 0.0
23/11:00pm 13.3 12.1 11.5 89 1.0 N 9 13 5 7 1013.8 1013.7 0.0
23/10:30pm 13.4 12.1 11.3 87 1.1 N 9 11 5 6 1014.3 1014.2 0.0
23/10:00pm 13.5 12.2 11.4 87 1.1 NNW 9 11 5 6 1014.6 1014.5 0.0
23/09:30pm 13.5 12.7 11.2 86 1.2 NW 6 7 3 4 1014.8 1014.7 0.0
23/09:00pm 13.3 12.4 11.4 88 1.0 SW 7 9 4 5 1014.9 1014.8 0.0
23/08:30pm 13.7 12.0 11.2 85 1.3 SW 11 15 6 8 1015.0 1014.9 0.0
23/08:00pm 13.4 11.3 11.3 87 1.1 SW 13 13 7 7 1015.0 1014.9 0.0
23/07:30pm 13.5 11.7 11.0 85 1.3 SW 11 11 6 6 1015.2 1015.1 0.0

Other Formats:

Comma delimited format used in spreadsheet applications
http://www.bom.gov.au/fwo/IDS60801/IDS60801.95663.axf

JavaScript Object Notation format (JSON) in row-major order
http://www.bom.gov.au/fwo/IDS60801/IDS60801.95663.json